METAR Data
IDs: Format: Raw Decoded Include TAF

Data at: 1618 UTC 18 Feb 2019

METAR for:KCWI (Clinton Muni, IA, US)
Text:KCWI 181556Z AUTO 35007KT 10SM CLR M05/M08 A3037 RMK AO2 SLP313 T10501083 FZRANO
Temperature: -5.0°C ( 23°F)
Dewpoint: -8.3°C ( 17°F) [RH = 78%]
Pressure (altimeter):30.37 inches Hg (1028.5 mb) [Sea level pressure: 1031.3 mb]
Winds:from the N (350 degrees) at 8 MPH (7 knots; 3.6 m/s)
Visibility:10 or more sm (16+ km)
Ceiling:at least 12,000 feet AGL
Clouds:sky clear below 12,000 feet AGL
QC Flag:automated observation with no human augmentation